Latest Coastal Weather Observations for Wynyard

IDT60701

Issued at 2:03 am EDT Friday 20 January 2017 (issued every 10 minutes, with the page automatically refreshed every 10 minutes)

About coastal observations | Map of coastal stations | Coastal observations for TAS | Marine services | Other Formats
Station Details ID: 091107 Name: WYNYARD AIRPORT Lat: -41.00 Lon: 145.73 Height: 12.0 m
Data from the previous 72 hours. | See also: Recent months at Wynyard
Date/Time
EDT
Temp
°C
Wind Pressure Rain since
9am
mm
Weather Cloud Vis
km
Sea
Height
m
Swell
Dir  Spd
kts
Gust
kts
hPa Trend Height
m
Period
s
Dir
20/02:00am 15.0 E 13 19 1004.1 - - - Partly cloudy 16 - - - -
20/01:30am 15.2 E 13 19 1005.4 - 0.0 - Partly cloudy 10 - - - -
20/01:00am 15.3 E 14 24 1004.5 - 0.0 - Partly cloudy 10 - - - -
20/12:30am 15.7 E 15 25 1004.2 - 0.0 - Cloudy 10 - - - -
20/12:00am 15.8 E 15 25 1004.6 - 0.0 - Mostly cloudy 10 - - - -
 
Date/Time
EDT
Temp
°C
Wind Pressure Rain since
9am
mm
Weather Cloud Vis
km
Sea
Height
m
Swell
Dir  Spd
kts
Gust
kts
hPa Trend Height
m
Period
s
Dir
19/11:59pm 15.7 E 15 25 1004.6 - 0.0 - Cloudy 10 - - - -
19/11:30pm 15.7 E 13 21 1005.3 - 0.0 - Partly cloudy 10 - - - -
19/11:00pm 15.9 ENE 12 18 1006.5 - 0.0 - Partly cloudy 10 - - - -
19/10:30pm 15.9 ENE 13 19 1006.9 - 0.0 - Partly cloudy 10 - - - -
19/10:00pm 16.0 ENE 13 19 1007.7 - 0.0 - Cloudy 10 - - - -
19/09:30pm 16.0 ENE 13 18 1008.0 - 0.0 - Cloudy 10 - - - -
19/09:00pm 15.9 ENE 10 16 1008.1 - 0.0 - Mostly cloudy 10 - - - -
19/08:30pm 15.8 E 10 15 1008.7 - 0.0 - Partly cloudy 10 - - - -
19/08:00pm 15.9 E 10 15 1009.2 - 0.0 - Cloudy 10 - - - -
19/07:30pm 16.0 E 8 12 1010.1 - 0.0 - Partly cloudy 10 - - - -
19/07:00pm 16.0 E 9 14 1010.6 - 0.0 - Partly cloudy 10 - - - -
19/06:30pm 16.1 E 8 12 1011.2 - 0.0 - Cloudy 10 - - - -
19/06:00pm 16.4 E 9 13 1011.2 - 0.0 - Cloudy 10 - - - -
19/05:30pm 16.7 E 9 13 1011.2 - 0.0 - Cloudy 10 - - - -
19/05:00pm 16.9 E 8 13 1012.1 - 0.0 - Cloudy 10 - - - -
19/04:30pm 16.9 E 11 16 1012.5 - 0.0 - Cloudy 10 - - - -
19/04:00pm 17.2 E 12 18 1012.3 - 0.0 - Partly cloudy 10 - - - -
19/03:30pm 18.0 E 11 16 1012.9 - 0.0 - Partly cloudy 10 - - - -
19/03:00pm 18.4 E 10 15 1013.3 - 0.0 - Cloudy 10 - - - -
19/02:30pm 17.2 E 11 17 1013.8 - 0.0 - Partly cloudy 10 - - - -
19/02:00pm 17.3 ENE 9 13 1014.4 - 0.0 - Cloudy 10 - - - -
19/01:30pm 16.8 E 10 17 1014.8 - 0.0 - Cloudy 10 - - - -
19/01:00pm 17.6 ENE 11 16 1015.0 - 0.0 - Partly cloudy 10 - - - -
19/12:30pm 17.6 E 10 16 1015.1 - 0.0 - Partly cloudy 10 - - - -
19/12:00pm 16.8 E 12 17 1015.4 - 0.0 - Partly cloudy 10 - - - -
19/11:30am 16.6 E 12 17 1015.5 - 0.0 - Partly cloudy 10 - - - -
19/11:00am 17.2 E 11 16 1015.8 - 0.0 - Partly cloudy 10 - - - -
19/10:30am 17.9 E 10 17 1016.0 - 0.0 - Partly cloudy 10 - - - -
19/10:00am 17.1 E 11 16 1016.0 - 0.0 - Partly cloudy 10 - - - -
19/09:30am 17.3 ESE 10 14 1016.1 - 0.0 - Cloudy 10 - - - -
19/09:00am 16.1 ESE 9 14 1016.1 - 0.0 - Mostly cloudy 10 - - - -
19/08:30am 14.0 SSE 5 7 1016.2 - 0.0 - Partly cloudy 10 - - - -
19/08:00am 12.0 WSW 3 4 1016.4 - 0.0 - Cloudy 10 - - - -
19/07:30am 10.4 WNW 5 6 1016.3 - 0.0 - Cloudy 10 - - - -
19/07:00am 9.3 WNW 5 6 1016.1 - 0.0 - Cloudy 10 - - - -
19/06:30am 8.0 W 5 6 1015.8 - 0.0 - Partly cloudy 10 - - - -
19/06:00am 7.6 W 6 7 1015.8 - 0.0 - Mostly cloudy 10 - - - -
19/05:30am 6.8 WSW 5 6 1015.7 - 0.0 - Partly cloudy 10 - - - -
19/05:00am 6.2 W 5 6 1015.4 - 0.0 - - 10 - - - -
19/04:30am 7.0 W 5 6 1015.4 - 0.0 - - 10 - - - -
19/04:00am 7.3 SW 5 7 1015.5 - 0.0 - - 10 - - - -
19/03:30am 6.5 SW 4 6 1015.5 - 0.0 - - 10 - - - -
19/03:00am 6.8 SW 4 6 1015.8 - 0.0 - - 10 - - - -
19/02:30am 9.0 CALM 0 0 1015.8 - 0.0 - - 10 - - - -
19/02:00am 10.3 WNW 4 6 1015.9 - 0.0 - - 10 - - - -
19/01:30am 10.6 WSW 5 7 1015.9 - 0.0 - - 10 - - - -
19/01:00am 10.8 SW 5 8 1016.0 - 0.0 - - 10 - - - -
19/12:30am 11.1 SW 6 9 1016.0 - 0.0 - - 10 - - - -
19/12:00am 11.7 SSW 8 13 1015.9 - 0.0 - - 10 - - - -
 
Date/Time
EDT
Temp
°C
Wind Pressure Rain since
9am
mm
Weather Cloud Vis
km
Sea
Height
m
Swell
Dir  Spd
kts
Gust
kts
hPa Trend Height
m
Period
s
Dir
18/11:30pm 11.5 WSW 5 8 1016.1 - 0.0 - - 10 - - - -
18/11:00pm 11.8 SW 7 12 1015.9 - 0.0 - - 10 - - - -
18/10:30pm 12.7 SSW 10 19 1015.8 - 0.0 - - 10 - - - -
18/10:00pm 13.0 SSW 13 20 1015.7 - 0.0 - - 10 - - - -
18/09:49pm 13.4 SSW 15 25 1015.5 - 0.0 - - 10 - - - -
18/09:30pm 13.5 SSW 14 21 1015.6 - 0.0 - - 10 - - - -
18/09:00pm 13.9 SW 15 23 1015.6 - 0.0 - - 10 - - - -
18/08:30pm 14.9 SW 10 15 1015.8 - 0.0 - - 10 - - - -
18/08:00pm 16.1 SSW 9 14 1015.3 - 0.0 - - 10 - - - -
18/07:30pm 17.0 SSW 11 15 1014.8 - 0.0 - - 10 - - - -
18/07:00pm 17.4 S 12 19 1014.5 - 0.0 - - 10 - - - -
18/06:30pm 18.0 S 12 17 1014.2 - 0.0 - - 10 - - - -
18/06:00pm 18.5 SW 15 20 1013.7 - 0.0 - - 10 - - - -
18/05:30pm 18.6 SSW 13 21 1013.4 - 0.0 - - 10 - - - -
18/05:19pm 18.6 S 15 25 1013.4 - 0.0 - - 10 - - - -
18/05:00pm 18.7 S 15 22 1013.2 - 0.0 - - 10 - - - -
18/04:30pm 19.4 SSW 13 20 1013.1 - 0.0 - - 10 - - - -
18/04:00pm 19.3 SW 15 24 1012.8 - 0.0 - - 10 - - - -
18/03:30pm 19.4 SSW 14 23 1012.5 - 0.0 - - 10 - - - -
18/03:00pm 19.5 SSW 15 22 1012.5 - 0.0 - - 10 - - - -
18/02:30pm 20.5 SSW 12 21 1012.1 - 0.0 - Partly cloudy 10 - - - -
18/02:00pm 19.3 SSW 15 23 1011.9 - 0.0 - Partly cloudy 10 - - - -
18/01:30pm 19.6 SSW 14 19 1011.9 - 0.0 - - 10 - - - -
18/01:10pm 18.9 SW 19 31 1011.6 - 0.0 - - 10 - - - -
18/01:00pm 19.3 SSW 16 25 1011.5 - 0.0 - - 10 - - - -
18/12:30pm 18.4 SW 18 27 1011.3 - 0.0 - - 10 - - - -
18/12:00pm 18.0 SW 20 30 1011.2 - 0.0 - - 10 - - - -
18/11:43am 17.9 SW 15 28 1010.8 - 0.0 - Partly cloudy 10 - - - -
18/11:30am 18.2 SW 17 25 1010.6 - 0.0 - Partly cloudy 10 - - - -
18/11:00am 17.3 SSW 19 29 1010.2 - 0.0 - Partly cloudy 10 - - - -
18/10:49am 17.5 SW 16 28 1010.3 - 0.0 - Partly cloudy 10 - - - -
18/10:30am 16.5 SW 17 25 1010.1 - 0.0 - Partly cloudy 10 - - - -
18/10:05am 16.3 SW 15 25 1009.7 - 0.0 - Partly cloudy 10 - - - -
18/10:00am 16.7 SW 13 20 1009.6 - 0.0 - Partly cloudy 10 - - - -
18/09:31am 15.7 SW 17 27 1009.4 - 0.0 - Partly cloudy 10 - - - -
18/09:30am 15.8 SW 18 27 1009.4 - 0.0 - Partly cloudy 10 - - - -
18/09:21am 15.3 WSW 15 26 1009.2 - 0.0 - Partly cloudy 10 - - - -
18/09:00am 15.5 WSW 15 22 1008.9 - 0.8 - Cloudy 10 - - - -
18/08:30am 14.7 WSW 12 18 1008.8 - 0.8 - Partly cloudy 10 - - - -
18/08:00am 14.2 WSW 13 19 1008.6 - 0.8 - Partly cloudy 10 - - - -
18/07:30am 13.6 WSW 14 21 1008.1 - 0.8 - - 10 - - - -
18/07:00am 13.0 WSW 11 19 1007.6 - 0.8 - Partly cloudy 10 - - - -
18/06:30am 12.7 WSW 15 19 1006.8 - 0.8 - - 10 - - - -
18/06:00am 12.1 WSW 10 15 1006.2 - 0.8 - Mostly clear 10 - - - -
18/05:30am 12.2 W 11 13 1005.9 - 0.8 - Partly cloudy 10 - - - -
18/05:00am 11.9 W 10 12 1005.6 - 0.8 - - 10 - - - -
18/04:30am 12.0 W 11 13 1005.8 - 0.8 - Partly cloudy 10 - - - -
18/04:00am 11.9 W 9 11 1005.9 - 0.8 - - 10 - - - -
18/03:30am 12.5 W 10 15 1005.6 - 0.8 - - 10 - - - -
18/03:00am 13.1 W 12 16 1005.6 - 0.8 - - 10 - - - -
18/02:30am 13.9 WSW 15 21 1005.6 - 0.8 - - 10 - - - -
18/02:00am 14.4 WSW 13 20 1005.3 - 0.8 - - 10 - - - -
18/01:30am 15.0 W 13 17 1005.3 - 0.8 - - 10 - - - -
18/01:00am 15.2 W 11 17 1005.3 - 0.8 - - 10 - - - -
18/12:30am 15.1 W 11 16 1005.5 - 0.8 - - 10 - - - -
18/12:00am 15.3 W 10 14 1005.7 - 0.8 - Cloudy 10 - - - -
 
Date/Time
EDT
Temp
°C
Wind Pressure Rain since
9am
mm
Weather Cloud Vis
km
Sea
Height
m
Swell
Dir  Spd
kts
Gust
kts
hPa Trend Height
m
Period
s
Dir
17/11:30pm 15.6 W 11 14 1005.8 - 0.8 - Partly cloudy 10 - - - -
17/11:00pm 15.6 W 11 15 1006.1 - 0.8 - Partly cloudy 10 - - - -
17/10:30pm 15.5 W 7 8 1005.8 - 0.8 - Partly cloudy 10 - - - -
17/10:00pm 16.0 WNW 7 9 1005.9 - 0.6 - Partly cloudy 10 - - - -
17/09:30pm 16.3 WNW 9 12 1005.8 - 0.4 - Partly cloudy 10 - - - -
17/09:00pm 16.7 NW 8 11 1005.1 - 0.4 Rain Cloudy 10 - - - -
17/08:30pm 17.3 WNW 10 15 1005.4 - 0.0 - Partly cloudy 10 - - - -
17/08:00pm 18.1 WNW 9 12 1004.9 - 0.0 - Cloudy 10 - - - -
17/07:30pm 19.3 WNW 8 10 1004.5 - 0.0 - Cloudy 10 - - - -
17/07:00pm 20.0 WNW 10 13 1004.2 - 0.0 - Cloudy 10 - - - -
17/06:30pm 20.4 NW 9 11 1003.8 - 0.0 - Partly cloudy 10 - - - -
17/06:00pm 20.7 NW 9 11 1003.6 - 0.0 - Partly cloudy 10 - - - -
17/05:30pm 21.0 NW 10 13 1004.2 - 0.0 - Partly cloudy 10 - - - -
17/05:00pm 20.5 NW 13 17 1004.2 - 0.0 - - 10 - - - -
17/04:30pm 21.1 NW 12 16 1004.1 - 0.0 - - 10 - - - -
17/04:00pm 20.4 NW 15 22 1004.1 - 0.0 - - 10 - - - -
17/03:30pm 21.0 NNW 18 24 1004.1 - 0.0 - - 10 - - - -
17/03:00pm 21.2 NW 16 19 1004.4 - 0.0 - Partly cloudy 10 - - - -
17/02:30pm 21.5 NW 15 21 1004.7 - 0.0 - - 10 - - - -
17/02:00pm 21.4 NW 13 17 1004.8 - 0.0 - - 10 - - - -
17/01:30pm 20.3 NW 15 20 1005.3 - 0.0 - - 10 - - - -
17/01:00pm 20.0 NNW 13 16 1005.5 - 0.0 - - 10 - - - -
17/12:30pm 20.0 N 8 13 1006.0 - 0.0 - - 10 - - - -
17/12:00pm 18.1 NE 9 12 1006.2 - 0.0 - Mostly clear 10 - - - -
17/11:30am 18.1 NE 9 11 1006.1 - 0.0 - - 10 - - - -
17/11:00am 18.9 NE 9 11 1006.7 - 0.0 - - 10 - - - -
17/10:30am 19.3 NNE 9 11 1007.2 - 0.0 - - 10 - - - -
17/10:00am 19.2 N 4 6 1006.8 - 0.0 - - 10 - - - -
17/09:30am 17.9 SW 1 5 1007.2 - 0.0 - - 10 - - - -
17/09:00am 15.7 W 3 4 1007.4 - 0.0 - Mostly cloudy 10 - - - -
17/08:30am 13.8 W 3 5 1007.4 - 0.0 - - 10 - - - -
17/08:00am 13.1 WSW 4 5 1006.8 - 0.0 - - 10 - - - -
17/07:30am 12.7 W 5 6 1007.8 - 0.0 - - 10 - - - -
17/07:00am 12.0 W 3 5 1007.6 - 0.0 - - 10 - - - -
17/06:30am 11.6 WNW 4 6 1007.2 - 0.0 - - 10 - - - -
17/06:00am 11.5 WNW 5 6 1007.1 - 0.0 - Cloudy 10 - - - -
17/05:30am 11.3 WNW 5 6 1007.3 - 0.0 - - 10 - - - -
17/05:00am 11.1 WNW 5 6 1007.1 - 0.0 - - 10 - - - -
17/04:30am 11.0 W 3 5 1007.1 - 0.0 - - 10 - - - -
17/04:00am 10.0 SW 1 5 1007.2 - 0.0 - Partly cloudy 10 - - - -
17/03:51am 10.3 SW 1 3 1007.1 - 0.0 - Partly cloudy 10 - - - -
17/03:38am 10.2 SW 4 6 1007.3 - 0.0 - Partly cloudy 10 - - - -
17/03:30am 10.0 WSW 4 6 1007.4 - 0.0 - Partly cloudy 10 - - - -
17/03:00am 10.1 WSW 3 5 1007.5 - 0.0 - - 10 - - - -
17/02:30am 11.0 SSW 3 5 1007.8 - 0.0 - - 10 - - - -

Other Formats:

Comma delimited format used in spreadsheet applications
http://www.bom.gov.au/fwo/IDT60701/IDT60701.95957.axf

JavaScript Object Notation format (JSON) in row-major order
http://www.bom.gov.au/fwo/IDT60701/IDT60701.95957.json